sensor_id;sensor_type;location;lat;lon;timestamp;P1;durP1;ratioP1;P2;durP2;ratioP2
50104;SDS011;47690;39.202;-77.198;2023-04-25T00:04:02;1.50;;;1.40;;
50104;SDS011;47690;39.202;-77.198;2023-04-25T00:06:33;2.08;;;1.80;;
50104;SDS011;47690;39.202;-77.198;2023-04-25T00:09:05;2.00;;;1.80;;
50104;SDS011;47690;39.202;-77.198;2023-04-25T00:11:54;1.80;;;1.70;;
50104;SDS011;47690;39.202;-77.198;2023-04-25T00:14:28;1.73;;;1.63;;
50104;SDS011;47690;39.202;-77.198;2023-04-25T00:17:02;3.30;;;1.83;;
50104;SDS011;47690;39.202;-77.198;2023-04-25T00:19:32;2.13;;;1.92;;
50104;SDS011;47690;39.202;-77.198;2023-04-25T00:22:04;1.80;;;1.70;;
50104;SDS011;47690;39.202;-77.198;2023-04-25T00:24:56;2.33;;;1.88;;
50104;SDS011;47690;39.202;-77.198;2023-04-25T00:27:30;1.63;;;1.52;;
50104;SDS011;47690;39.202;-77.198;2023-04-25T00:30:03;1.85;;;1.75;;
50104;SDS011;47690;39.202;-77.198;2023-04-25T00:32:40;1.75;;;1.65;;
50104;SDS011;47690;39.202;-77.198;2023-04-25T00:35:16;2.70;;;1.70;;
50104;SDS011;47690;39.202;-77.198;2023-04-25T00:37:47;1.73;;;1.63;;
50104;SDS011;47690;39.202;-77.198;2023-04-25T00:40:20;3.53;;;2.08;;
50104;SDS011;47690;39.202;-77.198;2023-04-25T00:42:50;1.90;;;1.65;;
50104;SDS011;47690;39.202;-77.198;2023-04-25T00:45:21;2.00;;;1.80;;
50104;SDS011;47690;39.202;-77.198;2023-04-25T00:47:55;1.92;;;1.80;;
50104;SDS011;47690;39.202;-77.198;2023-04-25T00:50:24;1.98;;;1.80;;
50104;SDS011;47690;39.202;-77.198;2023-04-25T00:53:00;1.55;;;1.45;;
50104;SDS011;47690;39.202;-77.198;2023-04-25T00:55:32;2.20;;;2.00;;
50104;SDS011;47690;39.202;-77.198;2023-04-25T00:58:02;1.85;;;1.75;;
50104;SDS011;47690;39.202;-77.198;2023-04-25T01:00:36;3.70;;;1.90;;
50104;SDS011;47690;39.202;-77.198;2023-04-25T01:03:07;3.70;;;1.95;;
50104;SDS011;47690;39.202;-77.198;2023-04-25T01:05:36;2.53;;;1.80;;
50104;SDS011;47690;39.202;-77.198;2023-04-25T01:08:07;2.00;;;1.80;;
50104;SDS011;47690;39.202;-77.198;2023-04-25T01:10:36;2.17;;;1.98;;
50104;SDS011;47690;39.202;-77.198;2023-04-25T01:13:06;1.92;;;1.83;;
50104;SDS011;47690;39.202;-77.198;2023-04-25T01:15:40;1.83;;;1.73;;
50104;SDS011;47690;39.202;-77.198;2023-04-25T01:18:11;2.40;;;2.10;;
50104;SDS011;47690;39.202;-77.198;2023-04-25T01:20:47;2.63;;;2.00;;
50104;SDS011;47690;39.202;-77.198;2023-04-25T01:23:23;2.58;;;1.92;;
50104;SDS011;47690;39.202;-77.198;2023-04-25T01:26:04;2.30;;;2.10;;
50104;SDS011;47690;39.202;-77.198;2023-04-25T01:28:40;2.45;;;2.17;;
50104;SDS011;47690;39.202;-77.198;2023-04-25T01:38:17;2.20;;;2.00;;
50104;SDS011;47690;39.202;-77.198;2023-04-25T01:41:19;2.20;;;2.00;;
50104;SDS011;47690;39.202;-77.198;2023-04-25T01:43:55;2.20;;;2.00;;
50104;SDS011;47690;39.202;-77.198;2023-04-25T01:49:34;2.30;;;2.05;;
50104;SDS011;47690;39.202;-77.198;2023-04-25T01:52:12;2.50;;;2.22;;
50104;SDS011;47690;39.202;-77.198;2023-04-25T01:54:42;2.28;;;2.08;;
50104;SDS011;47690;39.202;-77.198;2023-04-25T01:57:23;2.22;;;1.83;;
50104;SDS011;47690;39.202;-77.198;2023-04-25T01:59:58;2.70;;;2.25;;
50104;SDS011;47690;39.202;-77.198;2023-04-25T02:02:45;2.80;;;2.10;;
50104;SDS011;47690;39.202;-77.198;2023-04-25T02:05:33;1.98;;;1.83;;
50104;SDS011;47690;39.202;-77.198;2023-04-25T02:08:16;3.15;;;1.80;;
50104;SDS011;47690;39.202;-77.198;2023-04-25T02:10:48;2.42;;;2.03;;
50104;SDS011;47690;39.202;-77.198;2023-04-25T02:13:19;2.13;;;1.92;;
50104;SDS011;47690;39.202;-77.198;2023-04-25T02:16:03;3.28;;;1.88;;
50104;SDS011;47690;39.202;-77.198;2023-04-25T02:18:38;2.03;;;1.83;;
50104;SDS011;47690;39.202;-77.198;2023-04-25T02:21:08;2.20;;;2.00;;
50104;SDS011;47690;39.202;-77.198;2023-04-25T02:23:38;4.07;;;1.90;;
50104;SDS011;47690;39.202;-77.198;2023-04-25T02:26:11;2.50;;;1.90;;
50104;SDS011;47690;39.202;-77.198;2023-04-25T02:28:45;2.05;;;1.90;;
50104;SDS011;47690;39.202;-77.198;2023-04-25T02:31:30;2.30;;;2.10;;
50104;SDS011;47690;39.202;-77.198;2023-04-25T02:34:03;3.13;;;2.10;;
50104;SDS011;47690;39.202;-77.198;2023-04-25T02:36:51;2.50;;;2.13;;
50104;SDS011;47690;39.202;-77.198;2023-04-25T02:39:26;2.15;;;1.95;;
50104;SDS011;47690;39.202;-77.198;2023-04-25T02:42:39;2.05;;;1.80;;
50104;SDS011;47690;39.202;-77.198;2023-04-25T02:46:24;2.97;;;1.70;;
50104;SDS011;47690;39.202;-77.198;2023-04-25T02:50:43;1.90;;;1.80;;
50104;SDS011;47690;39.202;-77.198;2023-04-25T02:54:26;1.83;;;1.70;;
50104;SDS011;47690;39.202;-77.198;2023-04-25T02:57:24;2.05;;;1.90;;
50104;SDS011;47690;39.202;-77.198;2023-04-25T03:01:00;2.10;;;1.65;;
50104;SDS011;47690;39.202;-77.198;2023-04-25T03:03:32;1.80;;;1.70;;
50104;SDS011;47690;39.202;-77.198;2023-04-25T03:06:04;1.70;;;1.58;;
50104;SDS011;47690;39.202;-77.198;2023-04-25T03:08:43;3.10;;;1.80;;
50104;SDS011;47690;39.202;-77.198;2023-04-25T03:11:26;2.00;;;1.80;;
50104;SDS011;47690;39.202;-77.198;2023-04-25T03:15:31;3.22;;;1.98;;
50104;SDS011;47690;39.202;-77.198;2023-04-25T03:18:47;1.80;;;1.65;;
50104;SDS011;47690;39.202;-77.198;2023-04-25T03:21:52;2.20;;;2.00;;
50104;SDS011;47690;39.202;-77.198;2023-04-25T03:24:36;2.07;;;1.87;;
50104;SDS011;47690;39.202;-77.198;2023-04-25T03:27:24;2.13;;;1.92;;
50104;SDS011;47690;39.202;-77.198;2023-04-25T03:30:47;2.15;;;1.83;;
50104;SDS011;47690;39.202;-77.198;2023-04-25T03:34:57;1.85;;;1.73;;
50104;SDS011;47690;39.202;-77.198;2023-04-25T03:38:00;3.75;;;2.00;;
50104;SDS011;47690;39.202;-77.198;2023-04-25T03:40:55;3.33;;;1.80;;
50104;SDS011;47690;39.202;-77.198;2023-04-25T03:44:33;2.25;;;1.90;;
50104;SDS011;47690;39.202;-77.198;2023-04-25T03:48:21;1.90;;;1.80;;
50104;SDS011;47690;39.202;-77.198;2023-04-25T03:51:05;1.55;;;1.45;;
50104;SDS011;47690;39.202;-77.198;2023-04-25T03:54:35;2.00;;;1.80;;
50104;SDS011;47690;39.202;-77.198;2023-04-25T03:58:59;2.30;;;2.00;;
50104;SDS011;47690;39.202;-77.198;2023-04-25T04:03:12;1.95;;;1.75;;
50104;SDS011;47690;39.202;-77.198;2023-04-25T04:07:51;2.13;;;1.67;;
50104;SDS011;47690;39.202;-77.198;2023-04-25T04:10:32;2.10;;;1.90;;
50104;SDS011;47690;39.202;-77.198;2023-04-25T04:13:28;2.00;;;1.80;;
50104;SDS011;47690;39.202;-77.198;2023-04-25T04:17:32;2.25;;;2.00;;
50104;SDS011;47690;39.202;-77.198;2023-04-25T04:20:15;2.45;;;1.90;;
50104;SDS011;47690;39.202;-77.198;2023-04-25T04:22:50;2.05;;;1.85;;
50104;SDS011;47690;39.202;-77.198;2023-04-25T04:25:24;3.28;;;1.90;;
50104;SDS011;47690;39.202;-77.198;2023-04-25T04:28:17;2.40;;;2.00;;
50104;SDS011;47690;39.202;-77.198;2023-04-25T04:31:02;2.28;;;1.98;;
50104;SDS011;47690;39.202;-77.198;2023-04-25T04:34:08;2.53;;;1.90;;
50104;SDS011;47690;39.202;-77.198;2023-04-25T04:36:51;1.85;;;1.75;;
50104;SDS011;47690;39.202;-77.198;2023-04-25T04:40:30;2.72;;;1.77;;
50104;SDS011;47690;39.202;-77.198;2023-04-25T04:43:20;1.70;;;1.60;;
50104;SDS011;47690;39.202;-77.198;2023-04-25T04:46:32;2.05;;;1.90;;
50104;SDS011;47690;39.202;-77.198;2023-04-25T04:49:42;2.00;;;1.90;;
50104;SDS011;47690;39.202;-77.198;2023-04-25T04:53:04;3.40;;;1.90;;
50104;SDS011;47690;39.202;-77.198;2023-04-25T04:55:38;3.25;;;1.90;;
50104;SDS011;47690;39.202;-77.198;2023-04-25T04:58:32;2.45;;;1.85;;
50104;SDS011;47690;39.202;-77.198;2023-04-25T05:01:20;2.10;;;1.90;;
50104;SDS011;47690;39.202;-77.198;2023-04-25T05:04:04;2.05;;;1.85;;
50104;SDS011;47690;39.202;-77.198;2023-04-25T05:06:48;1.90;;;1.80;;
50104;SDS011;47690;39.202;-77.198;2023-04-25T05:10:07;2.10;;;1.90;;
50104;SDS011;47690;39.202;-77.198;2023-04-25T05:14:03;1.95;;;1.75;;
50104;SDS011;47690;39.202;-77.198;2023-04-25T05:16:55;2.20;;;1.90;;
50104;SDS011;47690;39.202;-77.198;2023-04-25T05:20:03;1.95;;;1.77;;
50104;SDS011;47690;39.202;-77.198;2023-04-25T05:23:56;1.80;;;1.70;;
50104;SDS011;47690;39.202;-77.198;2023-04-25T05:27:18;1.80;;;1.70;;
50104;SDS011;47690;39.202;-77.198;2023-04-25T05:30:23;2.42;;;1.92;;
50104;SDS011;47690;39.202;-77.198;2023-04-25T05:33:27;2.10;;;1.90;;
50104;SDS011;47690;39.202;-77.198;2023-04-25T05:36:27;1.83;;;1.73;;
50104;SDS011;47690;39.202;-77.198;2023-04-25T05:38:59;2.83;;;2.05;;
50104;SDS011;47690;39.202;-77.198;2023-04-25T05:41:59;2.00;;;1.80;;
50104;SDS011;47690;39.202;-77.198;2023-04-25T05:45:06;2.15;;;1.90;;
50104;SDS011;47690;39.202;-77.198;2023-04-25T05:48:22;1.92;;;1.80;;
50104;SDS011;47690;39.202;-77.198;2023-04-25T05:55:10;1.85;;;1.65;;
50104;SDS011;47690;39.202;-77.198;2023-04-25T05:58:24;2.08;;;1.90;;
50104;SDS011;47690;39.202;-77.198;2023-04-25T06:01:01;1.88;;;1.70;;
50104;SDS011;47690;39.202;-77.198;2023-04-25T06:04:02;1.90;;;1.73;;
50104;SDS011;47690;39.202;-77.198;2023-04-25T06:06:49;2.10;;;1.90;;
50104;SDS011;47690;39.202;-77.198;2023-04-25T06:09:24;1.73;;;1.63;;
50104;SDS011;47690;39.202;-77.198;2023-04-25T06:12:11;2.03;;;1.90;;
50104;SDS011;47690;39.202;-77.198;2023-04-25T06:14:48;2.22;;;2.00;;
50104;SDS011;47690;39.202;-77.198;2023-04-25T06:17:23;2.50;;;2.00;;
50104;SDS011;47690;39.202;-77.198;2023-04-25T06:19:56;2.15;;;1.95;;
50104;SDS011;47690;39.202;-77.198;2023-04-25T06:22:40;2.05;;;1.85;;
50104;SDS011;47690;39.202;-77.198;2023-04-25T06:25:18;2.03;;;1.83;;
50104;SDS011;47690;39.202;-77.198;2023-04-25T06:27:54;1.98;;;1.80;;
50104;SDS011;47690;39.202;-77.198;2023-04-25T06:30:44;2.03;;;1.88;;
50104;SDS011;47690;39.202;-77.198;2023-04-25T06:33:26;2.08;;;1.90;;
50104;SDS011;47690;39.202;-77.198;2023-04-25T06:36:03;3.40;;;1.90;;
50104;SDS011;47690;39.202;-77.198;2023-04-25T06:38:46;2.20;;;2.00;;
50104;SDS011;47690;39.202;-77.198;2023-04-25T06:41:50;2.10;;;1.90;;
50104;SDS011;47690;39.202;-77.198;2023-04-25T06:44:53;2.10;;;1.90;;
50104;SDS011;47690;39.202;-77.198;2023-04-25T06:47:30;2.22;;;2.03;;
50104;SDS011;47690;39.202;-77.198;2023-04-25T06:50:08;2.10;;;1.90;;
50104;SDS011;47690;39.202;-77.198;2023-04-25T06:52:44;2.33;;;1.98;;
50104;SDS011;47690;39.202;-77.198;2023-04-25T06:55:19;2.38;;;1.73;;
50104;SDS011;47690;39.202;-77.198;2023-04-25T06:58:20;2.22;;;2.03;;
50104;SDS011;47690;39.202;-77.198;2023-04-25T07:01:19;2.00;;;1.80;;
50104;SDS011;47690;39.202;-77.198;2023-04-25T07:04:03;2.90;;;2.03;;
50104;SDS011;47690;39.202;-77.198;2023-04-25T07:06:40;1.90;;;1.80;;
50104;SDS011;47690;39.202;-77.198;2023-04-25T07:09:19;2.30;;;2.00;;
50104;SDS011;47690;39.202;-77.198;2023-04-25T07:11:56;1.95;;;1.85;;
50104;SDS011;47690;39.202;-77.198;2023-04-25T07:14:45;2.08;;;1.70;;
50104;SDS011;47690;39.202;-77.198;2023-04-25T07:18:07;2.25;;;2.05;;
50104;SDS011;47690;39.202;-77.198;2023-04-25T07:21:42;2.40;;;1.73;;
50104;SDS011;47690;39.202;-77.198;2023-04-25T07:24:12;1.90;;;1.77;;
50104;SDS011;47690;39.202;-77.198;2023-04-25T07:26:55;2.10;;;1.83;;
50104;SDS011;47690;39.202;-77.198;2023-04-25T07:29:57;2.28;;;1.98;;
50104;SDS011;47690;39.202;-77.198;2023-04-25T07:32:38;2.17;;;1.98;;
50104;SDS011;47690;39.202;-77.198;2023-04-25T07:35:15;2.30;;;1.60;;
50104;SDS011;47690;39.202;-77.198;2023-04-25T07:37:49;1.90;;;1.80;;
50104;SDS011;47690;39.202;-77.198;2023-04-25T07:40:23;2.30;;;2.10;;
50104;SDS011;47690;39.202;-77.198;2023-04-25T07:43:02;2.03;;;1.85;;
50104;SDS011;47690;39.202;-77.198;2023-04-25T07:45:48;1.90;;;1.80;;
50104;SDS011;47690;39.202;-77.198;2023-04-25T07:48:24;2.50;;;1.75;;
50104;SDS011;47690;39.202;-77.198;2023-04-25T07:50:56;2.03;;;1.90;;
50104;SDS011;47690;39.202;-77.198;2023-04-25T07:53:30;1.90;;;1.67;;
50104;SDS011;47690;39.202;-77.198;2023-04-25T07:56:16;2.75;;;1.80;;
50104;SDS011;47690;39.202;-77.198;2023-04-25T07:58:48;2.42;;;1.88;;
50104;SDS011;47690;39.202;-77.198;2023-04-25T08:01:22;2.20;;;2.00;;
50104;SDS011;47690;39.202;-77.198;2023-04-25T08:04:00;1.90;;;1.80;;
50104;SDS011;47690;39.202;-77.198;2023-04-25T08:07:00;1.67;;;1.58;;
50104;SDS011;47690;39.202;-77.198;2023-04-25T08:09:55;1.75;;;1.65;;
50104;SDS011;47690;39.202;-77.198;2023-04-25T08:12:35;2.00;;;1.90;;
50104;SDS011;47690;39.202;-77.198;2023-04-25T08:15:10;2.38;;;1.92;;
50104;SDS011;47690;39.202;-77.198;2023-04-25T08:17:52;1.75;;;1.65;;
50104;SDS011;47690;39.202;-77.198;2023-04-25T08:20:54;2.25;;;1.90;;
50104;SDS011;47690;39.202;-77.198;2023-04-25T08:23:24;2.05;;;1.80;;
50104;SDS011;47690;39.202;-77.198;2023-04-25T08:26:19;1.77;;;1.67;;
50104;SDS011;47690;39.202;-77.198;2023-04-25T08:28:53;2.10;;;1.90;;
50104;SDS011;47690;39.202;-77.198;2023-04-25T08:31:24;3.30;;;1.90;;
50104;SDS011;47690;39.202;-77.198;2023-04-25T08:34:04;2.28;;;1.80;;
50104;SDS011;47690;39.202;-77.198;2023-04-25T08:36:51;3.03;;;2.15;;
50104;SDS011;47690;39.202;-77.198;2023-04-25T08:40:04;2.28;;;1.88;;
50104;SDS011;47690;39.202;-77.198;2023-04-25T08:43:23;2.00;;;1.85;;
50104;SDS011;47690;39.202;-77.198;2023-04-25T08:46:09;1.90;;;1.80;;
50104;SDS011;47690;39.202;-77.198;2023-04-25T08:48:55;1.92;;;1.83;;
50104;SDS011;47690;39.202;-77.198;2023-04-25T08:51:36;2.13;;;1.90;;
50104;SDS011;47690;39.202;-77.198;2023-04-25T08:54:28;1.83;;;1.73;;
50104;SDS011;47690;39.202;-77.198;2023-04-25T08:57:20;1.90;;;1.80;;
50104;SDS011;47690;39.202;-77.198;2023-04-25T08:59:57;1.88;;;1.77;;
50104;SDS011;47690;39.202;-77.198;2023-04-25T09:02:34;2.60;;;2.00;;
50104;SDS011;47690;39.202;-77.198;2023-04-25T09:05:05;2.15;;;1.92;;
50104;SDS011;47690;39.202;-77.198;2023-04-25T09:07:41;2.08;;;1.88;;
50104;SDS011;47690;39.202;-77.198;2023-04-25T09:11:10;1.80;;;1.70;;
50104;SDS011;47690;39.202;-77.198;2023-04-25T09:17:01;2.08;;;1.70;;
50104;SDS011;47690;39.202;-77.198;2023-04-25T09:22:39;1.88;;;1.77;;
50104;SDS011;47690;39.202;-77.198;2023-04-25T09:25:15;1.98;;;1.88;;
50104;SDS011;47690;39.202;-77.198;2023-04-25T09:27:51;2.03;;;1.88;;
50104;SDS011;47690;39.202;-77.198;2023-04-25T09:30:31;1.85;;;1.75;;
50104;SDS011;47690;39.202;-77.198;2023-04-25T09:33:32;2.17;;;1.98;;
50104;SDS011;47690;39.202;-77.198;2023-04-25T09:36:12;1.90;;;1.80;;
50104;SDS011;47690;39.202;-77.198;2023-04-25T09:39:03;1.83;;;1.73;;
50104;SDS011;47690;39.202;-77.198;2023-04-25T09:41:59;1.90;;;1.80;;
50104;SDS011;47690;39.202;-77.198;2023-04-25T09:44:29;2.03;;;1.83;;
50104;SDS011;47690;39.202;-77.198;2023-04-25T09:47:07;1.98;;;1.85;;
50104;SDS011;47690;39.202;-77.198;2023-04-25T09:49:45;2.20;;;2.00;;
50104;SDS011;47690;39.202;-77.198;2023-04-25T09:52:21;2.10;;;1.85;;
50104;SDS011;47690;39.202;-77.198;2023-04-25T09:55:20;1.73;;;1.63;;
50104;SDS011;47690;39.202;-77.198;2023-04-25T09:57:52;1.83;;;1.73;;
50104;SDS011;47690;39.202;-77.198;2023-04-25T10:00:28;1.80;;;1.70;;
50104;SDS011;47690;39.202;-77.198;2023-04-25T10:03:18;2.20;;;2.00;;
50104;SDS011;47690;39.202;-77.198;2023-04-25T10:06:33;2.25;;;2.05;;
50104;SDS011;47690;39.202;-77.198;2023-04-25T10:09:33;2.00;;;1.80;;
50104;SDS011;47690;39.202;-77.198;2023-04-25T10:12:23;3.30;;;2.00;;
50104;SDS011;47690;39.202;-77.198;2023-04-25T10:14:59;2.22;;;2.03;;
50104;SDS011;47690;39.202;-77.198;2023-04-25T10:17:36;2.38;;;2.00;;
50104;SDS011;47690;39.202;-77.198;2023-04-25T10:20:22;2.53;;;2.13;;
50104;SDS011;47690;39.202;-77.198;2023-04-25T10:23:06;3.20;;;2.10;;
50104;SDS011;47690;39.202;-77.198;2023-04-25T10:31:45;2.67;;;2.00;;
50104;SDS011;47690;39.202;-77.198;2023-04-25T10:34:17;2.20;;;2.00;;
50104;SDS011;47690;39.202;-77.198;2023-04-25T10:36:54;2.33;;;2.13;;
50104;SDS011;47690;39.202;-77.198;2023-04-25T10:39:29;2.30;;;2.10;;
50104;SDS011;47690;39.202;-77.198;2023-04-25T10:42:08;2.30;;;2.10;;
50104;SDS011;47690;39.202;-77.198;2023-04-25T10:47:50;2.42;;;2.22;;
50104;SDS011;47690;39.202;-77.198;2023-04-25T10:50:23;2.30;;;2.10;;
50104;SDS011;47690;39.202;-77.198;2023-04-25T10:53:17;2.00;;;1.90;;
50104;SDS011;47690;39.202;-77.198;2023-04-25T10:55:58;2.40;;;2.20;;
50104;SDS011;47690;39.202;-77.198;2023-04-25T10:58:30;2.30;;;2.10;;
50104;SDS011;47690;39.202;-77.198;2023-04-25T11:01:04;2.30;;;2.10;;
50104;SDS011;47690;39.202;-77.198;2023-04-25T11:03:40;2.75;;;2.53;;
50104;SDS011;47690;39.202;-77.198;2023-04-25T11:06:22;2.30;;;2.10;;
50104;SDS011;47690;39.202;-77.198;2023-04-25T11:09:20;2.25;;;2.00;;
50104;SDS011;47690;39.202;-77.198;2023-04-25T11:12:07;2.35;;;2.15;;
50104;SDS011;47690;39.202;-77.198;2023-04-25T11:14:57;2.20;;;2.00;;
50104;SDS011;47690;39.202;-77.198;2023-04-25T11:17:46;2.35;;;1.95;;
50104;SDS011;47690;39.202;-77.198;2023-04-25T11:20:27;2.25;;;2.05;;
50104;SDS011;47690;39.202;-77.198;2023-04-25T11:22:59;2.33;;;2.13;;
50104;SDS011;47690;39.202;-77.198;2023-04-25T11:25:52;2.92;;;2.22;;
50104;SDS011;47690;39.202;-77.198;2023-04-25T11:28:51;2.15;;;1.95;;
50104;SDS011;47690;39.202;-77.198;2023-04-25T11:35:02;1.77;;;1.67;;
50104;SDS011;47690;39.202;-77.198;2023-04-25T11:37:55;1.85;;;1.75;;
50104;SDS011;47690;39.202;-77.198;2023-04-25T11:40:32;2.20;;;2.00;;
50104;SDS011;47690;39.202;-77.198;2023-04-25T11:43:17;2.22;;;1.90;;
50104;SDS011;47690;39.202;-77.198;2023-04-25T11:46:46;2.42;;;2.03;;
50104;SDS011;47690;39.202;-77.198;2023-04-25T11:49:30;2.20;;;2.00;;
50104;SDS011;47690;39.202;-77.198;2023-04-25T11:52:12;2.20;;;2.00;;
50104;SDS011;47690;39.202;-77.198;2023-04-25T11:54:44;2.55;;;2.20;;
50104;SDS011;47690;39.202;-77.198;2023-04-25T11:57:18;2.33;;;2.13;;
50104;SDS011;47690;39.202;-77.198;2023-04-25T11:59:54;2.08;;;1.90;;
50104;SDS011;47690;39.202;-77.198;2023-04-25T12:02:25;2.40;;;2.20;;
50104;SDS011;47690;39.202;-77.198;2023-04-25T12:04:58;2.30;;;2.10;;
50104;SDS011;47690;39.202;-77.198;2023-04-25T12:07:56;2.13;;;2.00;;
50104;SDS011;47690;39.202;-77.198;2023-04-25T12:10:57;3.50;;;2.20;;
50104;SDS011;47690;39.202;-77.198;2023-04-25T12:13:52;2.20;;;1.90;;
50104;SDS011;47690;39.202;-77.198;2023-04-25T12:16:49;2.30;;;2.10;;
50104;SDS011;47690;39.202;-77.198;2023-04-25T12:22:52;1.90;;;1.80;;
50104;SDS011;47690;39.202;-77.198;2023-04-25T12:25:42;2.40;;;2.20;;
50104;SDS011;47690;39.202;-77.198;2023-04-25T12:29:02;2.10;;;1.92;;
50104;SDS011;47690;39.202;-77.198;2023-04-25T12:32:15;2.10;;;1.92;;
50104;SDS011;47690;39.202;-77.198;2023-04-25T12:34:46;2.40;;;2.08;;
50104;SDS011;47690;39.202;-77.198;2023-04-25T12:37:22;2.65;;;2.15;;
50104;SDS011;47690;39.202;-77.198;2023-04-25T12:39:56;2.20;;;2.00;;
50104;SDS011;47690;39.202;-77.198;2023-04-25T12:42:36;2.20;;;2.05;;
50104;SDS011;47690;39.202;-77.198;2023-04-25T12:45:11;2.10;;;1.90;;
50104;SDS011;47690;39.202;-77.198;2023-04-25T12:47:46;2.28;;;2.08;;
50104;SDS011;47690;39.202;-77.198;2023-04-25T12:50:18;2.25;;;2.05;;
50104;SDS011;47690;39.202;-77.198;2023-04-25T12:52:48;2.33;;;2.05;;
50104;SDS011;47690;39.202;-77.198;2023-04-25T12:55:17;2.40;;;2.20;;
50104;SDS011;47690;39.202;-77.198;2023-04-25T12:57:47;2.63;;;2.10;;
50104;SDS011;47690;39.202;-77.198;2023-04-25T13:00:17;2.35;;;2.15;;
50104;SDS011;47690;39.202;-77.198;2023-04-25T13:03:02;2.00;;;1.90;;
50104;SDS011;47690;39.202;-77.198;2023-04-25T13:05:34;2.22;;;2.03;;
50104;SDS011;47690;39.202;-77.198;2023-04-25T13:08:05;2.03;;;1.83;;
50104;SDS011;47690;39.202;-77.198;2023-04-25T13:13:32;2.08;;;1.92;;
50104;SDS011;47690;39.202;-77.198;2023-04-25T13:16:03;2.70;;;2.13;;
50104;SDS011;47690;39.202;-77.198;2023-04-25T13:18:34;1.90;;;1.75;;
50104;SDS011;47690;39.202;-77.198;2023-04-25T13:21:03;2.30;;;2.10;;
50104;SDS011;47690;39.202;-77.198;2023-04-25T13:23:32;2.85;;;2.28;;
50104;SDS011;47690;39.202;-77.198;2023-04-25T13:26:02;2.38;;;2.17;;
50104;SDS011;47690;39.202;-77.198;2023-04-25T13:28:31;2.22;;;2.03;;
50104;SDS011;47690;39.202;-77.198;2023-04-25T13:31:01;2.47;;;2.28;;
50104;SDS011;47690;39.202;-77.198;2023-04-25T13:33:38;2.45;;;2.25;;
50104;SDS011;47690;39.202;-77.198;2023-04-25T13:36:07;2.13;;;1.92;;
50104;SDS011;47690;39.202;-77.198;2023-04-25T13:38:36;2.13;;;1.92;;
50104;SDS011;47690;39.202;-77.198;2023-04-25T13:41:07;2.30;;;2.10;;
50104;SDS011;47690;39.202;-77.198;2023-04-25T13:43:41;2.38;;;2.17;;
50104;SDS011;47690;39.202;-77.198;2023-04-25T13:46:16;2.30;;;2.10;;
50104;SDS011;47690;39.202;-77.198;2023-04-25T13:49:15;2.15;;;1.95;;
50104;SDS011;47690;39.202;-77.198;2023-04-25T13:51:45;1.83;;;1.73;;
50104;SDS011;47690;39.202;-77.198;2023-04-25T13:54:17;1.90;;;1.80;;
50104;SDS011;47690;39.202;-77.198;2023-04-25T13:56:46;2.15;;;1.95;;
50104;SDS011;47690;39.202;-77.198;2023-04-25T13:59:19;2.60;;;2.40;;
50104;SDS011;47690;39.202;-77.198;2023-04-25T14:01:48;2.80;;;2.40;;
50104;SDS011;47690;39.202;-77.198;2023-04-25T14:04:17;2.03;;;1.88;;
50104;SDS011;47690;39.202;-77.198;2023-04-25T14:06:46;2.45;;;2.25;;
50104;SDS011;47690;39.202;-77.198;2023-04-25T14:09:19;2.60;;;2.28;;
50104;SDS011;47690;39.202;-77.198;2023-04-25T14:11:56;2.40;;;2.20;;
50104;SDS011;47690;39.202;-77.198;2023-04-25T14:14:26;2.20;;;2.00;;
50104;SDS011;47690;39.202;-77.198;2023-04-25T14:16:56;2.40;;;2.20;;
50104;SDS011;47690;39.202;-77.198;2023-04-25T14:19:26;2.30;;;2.10;;
50104;SDS011;47690;39.202;-77.198;2023-04-25T14:21:56;2.40;;;2.20;;
50104;SDS011;47690;39.202;-77.198;2023-04-25T14:24:34;2.33;;;2.13;;
50104;SDS011;47690;39.202;-77.198;2023-04-25T14:27:03;2.35;;;2.13;;
50104;SDS011;47690;39.202;-77.198;2023-04-25T14:29:32;2.90;;;2.25;;
50104;SDS011;47690;39.202;-77.198;2023-04-25T14:32:03;2.70;;;2.13;;
50104;SDS011;47690;39.202;-77.198;2023-04-25T14:34:34;2.25;;;2.05;;
50104;SDS011;47690;39.202;-77.198;2023-04-25T14:37:06;2.40;;;2.20;;
50104;SDS011;47690;39.202;-77.198;2023-04-25T14:39:38;2.60;;;2.10;;
50104;SDS011;47690;39.202;-77.198;2023-04-25T14:42:09;2.60;;;2.20;;
50104;SDS011;47690;39.202;-77.198;2023-04-25T14:44:48;2.28;;;2.08;;
50104;SDS011;47690;39.202;-77.198;2023-04-25T14:47:20;2.47;;;2.28;;
50104;SDS011;47690;39.202;-77.198;2023-04-25T14:49:50;2.40;;;2.20;;
50104;SDS011;47690;39.202;-77.198;2023-04-25T14:52:22;2.40;;;2.20;;
50104;SDS011;47690;39.202;-77.198;2023-04-25T14:54:57;2.72;;;2.40;;
50104;SDS011;47690;39.202;-77.198;2023-04-25T14:57:31;2.38;;;2.17;;
50104;SDS011;47690;39.202;-77.198;2023-04-25T15:00:05;2.50;;;2.30;;
50104;SDS011;47690;39.202;-77.198;2023-04-25T15:02:40;2.38;;;2.17;;
50104;SDS011;47690;39.202;-77.198;2023-04-25T15:05:14;2.50;;;2.30;;
50104;SDS011;47690;39.202;-77.198;2023-04-25T15:07:46;2.70;;;2.47;;
50104;SDS011;47690;39.202;-77.198;2023-04-25T15:10:16;2.60;;;2.35;;
50104;SDS011;47690;39.202;-77.198;2023-04-25T15:12:46;2.80;;;2.50;;
50104;SDS011;47690;39.202;-77.198;2023-04-25T15:15:16;4.15;;;2.60;;
50104;SDS011;47690;39.202;-77.198;2023-04-25T15:17:53;2.42;;;2.22;;
50104;SDS011;47690;39.202;-77.198;2023-04-25T15:20:26;2.60;;;2.40;;
50104;SDS011;47690;39.202;-77.198;2023-04-25T15:22:58;2.83;;;2.58;;
50104;SDS011;47690;39.202;-77.198;2023-04-25T15:25:27;2.90;;;2.60;;
50104;SDS011;47690;39.202;-77.198;2023-04-25T15:27:56;2.50;;;2.30;;
50104;SDS011;47690;39.202;-77.198;2023-04-25T15:30:26;2.55;;;2.35;;
50104;SDS011;47690;39.202;-77.198;2023-04-25T15:32:55;3.05;;;2.60;;
50104;SDS011;47690;39.202;-77.198;2023-04-25T15:35:30;4.05;;;2.53;;
50104;SDS011;47690;39.202;-77.198;2023-04-25T15:37:59;2.47;;;2.28;;
50104;SDS011;47690;39.202;-77.198;2023-04-25T15:40:28;3.45;;;2.78;;
50104;SDS011;47690;39.202;-77.198;2023-04-25T15:43:02;2.58;;;2.38;;
50104;SDS011;47690;39.202;-77.198;2023-04-25T15:45:40;2.90;;;2.40;;
50104;SDS011;47690;39.202;-77.198;2023-04-25T15:48:21;2.42;;;2.22;;
50104;SDS011;47690;39.202;-77.198;2023-04-25T15:51:02;2.92;;;2.35;;
50104;SDS011;47690;39.202;-77.198;2023-04-25T15:53:32;2.30;;;2.10;;
50104;SDS011;47690;39.202;-77.198;2023-04-25T15:56:01;3.92;;;2.40;;
50104;SDS011;47690;39.202;-77.198;2023-04-25T15:58:31;2.50;;;2.30;;
50104;SDS011;47690;39.202;-77.198;2023-04-25T16:01:00;3.00;;;2.70;;
50104;SDS011;47690;39.202;-77.198;2023-04-25T16:03:35;2.90;;;2.47;;
50104;SDS011;47690;39.202;-77.198;2023-04-25T16:06:05;2.50;;;2.30;;
50104;SDS011;47690;39.202;-77.198;2023-04-25T16:08:35;2.63;;;2.30;;
50104;SDS011;47690;39.202;-77.198;2023-04-25T16:11:07;2.47;;;2.28;;
50104;SDS011;47690;39.202;-77.198;2023-04-25T16:13:37;3.70;;;2.30;;
50104;SDS011;47690;39.202;-77.198;2023-04-25T16:16:15;2.72;;;2.42;;
50104;SDS011;47690;39.202;-77.198;2023-04-25T16:18:47;2.90;;;2.58;;
50104;SDS011;47690;39.202;-77.198;2023-04-25T16:21:18;2.65;;;2.13;;
50104;SDS011;47690;39.202;-77.198;2023-04-25T16:23:52;2.50;;;2.30;;
50104;SDS011;47690;39.202;-77.198;2023-04-25T16:26:26;3.10;;;2.50;;
50104;SDS011;47690;39.202;-77.198;2023-04-25T16:28:55;3.10;;;2.75;;
50104;SDS011;47690;39.202;-77.198;2023-04-25T16:31:25;3.38;;;2.60;;
50104;SDS011;47690;39.202;-77.198;2023-04-25T16:33:55;3.42;;;2.28;;
50104;SDS011;47690;39.202;-77.198;2023-04-25T16:36:25;2.67;;;2.30;;
50104;SDS011;47690;39.202;-77.198;2023-04-25T16:38:55;3.50;;;2.40;;
50104;SDS011;47690;39.202;-77.198;2023-04-25T16:41:24;3.10;;;2.60;;
50104;SDS011;47690;39.202;-77.198;2023-04-25T16:43:54;3.08;;;2.60;;